createdAt,value
2024-05-09T00:03:11.015Z,9.78
2024-05-09T00:08:14.367Z,9.74
2024-05-09T00:13:16.622Z,9.72
2024-05-09T00:18:18.912Z,9.69
2024-05-09T00:23:21.230Z,9.67
2024-05-09T00:28:23.420Z,9.63
2024-05-09T00:33:25.840Z,9.61
2024-05-09T00:38:28.407Z,9.58
2024-05-09T00:43:32.614Z,9.57
2024-05-09T00:48:35.522Z,9.46
2024-05-09T00:53:38.033Z,9.46
2024-05-09T00:58:40.282Z,9.41
2024-05-09T01:03:42.632Z,9.40
2024-05-09T01:08:45.004Z,9.38
2024-05-09T01:13:47.178Z,9.32
2024-05-09T01:18:49.430Z,9.25
2024-05-09T01:23:51.671Z,9.23
2024-05-09T01:28:53.916Z,9.19
2024-05-09T01:33:56.427Z,9.12
2024-05-09T01:38:58.865Z,9.12
2024-05-09T01:44:01.108Z,9.08
2024-05-09T01:49:04.543Z,9.01
2024-05-09T01:54:06.855Z,8.98
2024-05-09T01:59:10.497Z,8.92
2024-05-09T02:04:13.011Z,8.89
2024-05-09T02:09:16.203Z,8.88
2024-05-09T02:14:20.181Z,8.84
2024-05-09T02:19:22.583Z,8.80
2024-05-09T02:24:24.928Z,8.78
2024-05-09T02:29:27.209Z,8.73
2024-05-09T02:34:29.460Z,8.71
2024-05-09T02:39:31.641Z,8.69
2024-05-09T02:44:33.845Z,8.66
2024-05-09T02:49:36.255Z,8.62
2024-05-09T02:54:38.534Z,8.61
2024-05-09T02:59:40.688Z,8.62
2024-05-09T03:04:43.474Z,8.59
2024-05-09T03:09:48.636Z,8.57
2024-05-09T03:14:51.159Z,8.52
2024-05-09T03:19:53.365Z,8.47
2024-05-09T03:24:55.525Z,8.44
2024-05-09T03:29:57.686Z,8.36
2024-05-09T03:34:59.842Z,8.32
2024-05-09T03:40:02.924Z,8.30
2024-05-09T03:45:05.256Z,8.31
2024-05-09T03:50:12.214Z,8.28
2024-05-09T03:55:20.153Z,8.28
2024-05-09T04:00:30.943Z,8.30
2024-05-09T04:05:41.398Z,8.28
2024-05-09T04:10:44.767Z,8.29
2024-05-09T04:15:47.024Z,8.26
2024-05-09T04:20:49.325Z,8.25
2024-05-09T04:25:51.534Z,8.28
2024-05-09T04:30:53.708Z,8.32
2024-05-09T04:35:55.874Z,8.30
2024-05-09T04:40:58.176Z,8.33
2024-05-09T04:46:00.392Z,8.35
2024-05-09T04:51:03.358Z,8.41
2024-05-09T04:56:06.810Z,8.47
2024-05-09T05:01:09.029Z,8.54
2024-05-09T05:06:11.245Z,8.60
2024-05-09T05:11:13.708Z,8.68
2024-05-09T05:16:16.703Z,8.77
2024-05-09T05:21:19.174Z,8.93
2024-05-09T05:26:21.467Z,9.08
2024-05-09T05:31:23.686Z,9.24
2024-05-09T05:36:25.936Z,9.46
2024-05-09T05:41:28.136Z,9.72
2024-05-09T05:46:30.340Z,9.94
2024-05-09T05:51:32.486Z,10.16
2024-05-09T05:56:34.735Z,10.45
2024-05-09T06:01:36.979Z,10.75
2024-05-09T06:06:39.190Z,11.01
2024-05-09T06:11:42.531Z,11.25
2024-05-09T06:16:44.786Z,11.49
2024-05-09T06:21:47.014Z,11.70
2024-05-09T06:26:50.173Z,11.94
2024-05-09T06:31:52.499Z,12.20
2024-05-09T06:36:54.666Z,12.40
2024-05-09T06:41:56.853Z,12.62
2024-05-09T06:47:00.081Z,12.84
2024-05-09T06:52:02.339Z,13.03
2024-05-09T06:57:05.267Z,13.36
2024-05-09T07:02:07.730Z,13.46
2024-05-09T07:07:09.940Z,13.66
2024-05-09T07:12:12.314Z,13.95
2024-05-09T07:17:14.713Z,14.03
2024-05-09T07:22:17.121Z,14.08
2024-05-09T07:27:19.281Z,14.10
2024-05-09T07:32:21.686Z,14.35
2024-05-09T07:37:23.959Z,14.69
2024-05-09T07:42:26.113Z,14.93
2024-05-09T07:48:57.184Z,15.08
2024-05-09T07:53:35.353Z,15.01
2024-05-09T07:58:13.174Z,15.10
2024-05-09T08:03:15.384Z,15.08
2024-05-09T08:08:17.674Z,15.20
2024-05-09T08:13:19.885Z,15.50
2024-05-09T08:18:22.189Z,15.72
2024-05-09T08:23:24.415Z,15.98
2024-05-09T08:28:26.605Z,15.94
2024-05-09T08:33:28.932Z,15.83
2024-05-09T08:38:31.249Z,15.76
2024-05-09T08:43:33.435Z,15.82
2024-05-09T08:48:39.413Z,15.89
2024-05-09T08:53:41.673Z,15.97
2024-05-09T08:58:45.300Z,15.84
2024-05-09T09:03:49.094Z,15.74
2024-05-09T09:08:51.838Z,16.01
2024-05-09T09:13:53.988Z,16.18
2024-05-09T09:18:57.738Z,16.34
2024-05-09T09:24:00.138Z,16.24
2024-05-09T09:29:02.790Z,16.38
2024-05-09T09:34:09.720Z,16.37
2024-05-09T09:39:16.331Z,16.51
2024-05-09T09:44:20.088Z,16.94
2024-05-09T09:49:24.390Z,17.45
2024-05-09T09:54:29.101Z,17.52
2024-05-09T09:59:35.967Z,17.38
2024-05-09T10:04:38.198Z,17.14
2024-05-09T10:09:40.526Z,17.25
2024-05-09T10:14:49.783Z,17.47
2024-05-09T10:19:52.162Z,17.69
2024-05-09T10:24:55.168Z,18.43
2024-05-09T10:29:59.179Z,18.58
2024-05-09T10:35:05.719Z,18.06
2024-05-09T10:40:14.234Z,17.79
2024-05-09T10:45:22.055Z,17.67
2024-05-09T10:50:28.761Z,17.68
2024-05-09T10:55:34.160Z,17.66
2024-05-09T11:00:37.676Z,17.72
2024-05-09T11:05:43.118Z,17.61
2024-05-09T11:10:46.147Z,17.36
2024-05-09T11:15:48.431Z,17.41
2024-05-09T11:20:53.732Z,17.16
2024-05-09T11:25:57.743Z,16.89
2024-05-09T11:31:10.755Z,16.85
2024-05-09T11:36:13.646Z,16.87
2024-05-09T11:41:19.096Z,16.84
2024-05-09T11:46:21.551Z,16.94
2024-05-09T11:51:23.828Z,16.95
2024-05-09T11:56:26.021Z,16.92
2024-05-09T12:01:28.422Z,16.92
2024-05-09T12:06:30.869Z,16.82
2024-05-09T12:11:33.193Z,16.79
2024-05-09T12:16:35.744Z,16.76
2024-05-09T12:21:37.996Z,16.67
2024-05-09T12:26:40.205Z,16.73
2024-05-09T12:31:42.381Z,16.61
2024-05-09T12:36:44.548Z,16.29
2024-05-09T12:41:46.691Z,16.27
2024-05-09T12:46:48.995Z,16.43
2024-05-09T12:51:51.182Z,16.41
2024-05-09T12:56:53.427Z,16.42
2024-05-09T13:01:57.224Z,16.43
2024-05-09T13:07:00.245Z,16.41
2024-05-09T13:12:02.380Z,16.58
2024-05-09T13:17:05.258Z,16.62
2024-05-09T13:22:07.466Z,16.49
2024-05-09T13:27:10.078Z,16.33
2024-05-09T13:32:12.264Z,16.39
2024-05-09T13:37:14.492Z,16.60
2024-05-09T13:42:17.538Z,16.67
2024-05-09T13:47:20.327Z,16.61
2024-05-09T13:52:22.551Z,16.74
2024-05-09T13:57:24.743Z,16.63
2024-05-09T14:02:26.962Z,16.63
2024-05-09T14:07:29.206Z,16.69
2024-05-09T14:12:31.372Z,16.64
2024-05-09T14:17:33.751Z,16.63
2024-05-09T14:22:36.976Z,16.65
2024-05-09T14:27:39.542Z,16.77
2024-05-09T14:32:41.890Z,16.82
2024-05-09T14:37:44.130Z,16.64
2024-05-09T14:42:46.386Z,16.44
2024-05-09T14:47:48.716Z,16.64
2024-05-09T14:52:50.939Z,16.77
2024-05-09T14:57:53.213Z,16.70
2024-05-09T15:02:55.662Z,16.68
2024-05-09T15:07:58.743Z,16.74
2024-05-09T15:13:00.996Z,16.79
2024-05-09T15:18:05.407Z,16.54
2024-05-09T15:23:07.874Z,16.43
2024-05-09T15:28:10.211Z,16.42
2024-05-09T15:33:12.529Z,16.25
2024-05-09T15:38:15.948Z,16.23
2024-05-09T15:43:18.228Z,16.31
2024-05-09T15:48:20.518Z,16.30
2024-05-09T15:53:22.775Z,16.16
2024-05-09T15:58:25.154Z,16.16
2024-05-09T16:03:28.328Z,16.23
2024-05-09T16:08:30.615Z,16.21
2024-05-09T16:13:32.873Z,16.15
2024-05-09T16:18:35.252Z,16.22
2024-05-09T16:23:40.046Z,16.27
2024-05-09T16:28:42.392Z,16.30
2024-05-09T16:33:44.795Z,16.30
2024-05-09T16:38:47.033Z,16.26
2024-05-09T16:43:49.192Z,15.91
2024-05-09T16:48:51.521Z,15.75
2024-05-09T16:53:53.786Z,15.76
2024-05-09T16:58:56.087Z,15.67
2024-05-09T17:03:58.456Z,15.56
2024-05-09T17:09:08.385Z,15.57
2024-05-09T17:14:13.910Z,15.61
2024-05-09T17:19:17.120Z,15.60
2024-05-09T17:24:19.454Z,15.57
2024-05-09T17:29:21.710Z,15.43
2024-05-09T17:34:25.008Z,15.47
2024-05-09T17:39:27.318Z,15.41
2024-05-09T17:44:29.482Z,15.35
2024-05-09T17:49:31.845Z,15.42
2024-05-09T17:54:34.250Z,15.40
2024-05-09T17:59:36.474Z,15.40
2024-05-09T18:04:38.741Z,15.38
2024-05-09T18:09:41.048Z,15.39
2024-05-09T18:14:43.710Z,15.33
2024-05-09T18:19:46.015Z,15.31
2024-05-09T18:24:48.281Z,15.23
2024-05-09T18:29:50.849Z,15.17
2024-05-09T18:34:53.168Z,15.14
2024-05-09T18:39:55.418Z,15.05
2024-05-09T18:44:57.638Z,14.98
2024-05-09T18:50:00.575Z,14.88
2024-05-09T18:55:02.918Z,14.80
2024-05-09T19:00:05.867Z,14.75
2024-05-09T19:05:09.316Z,14.63
2024-05-09T19:10:22.042Z,14.51
2024-05-09T19:15:27.797Z,14.37
2024-05-09T19:20:34.463Z,14.22
2024-05-09T19:25:38.254Z,14.08
2024-05-09T19:30:42.381Z,13.99
2024-05-09T19:35:45.259Z,13.87
2024-05-09T19:40:47.646Z,13.79
2024-05-09T19:45:50.010Z,13.66
2024-05-09T19:50:53.334Z,13.56
2024-05-09T19:55:56.286Z,13.51
2024-05-09T20:00:58.526Z,13.44
2024-05-09T20:06:00.724Z,13.37
2024-05-09T20:11:02.882Z,13.31
2024-05-09T20:16:05.652Z,13.25
2024-05-09T20:21:08.001Z,13.12
2024-05-09T20:26:10.660Z,13.03
2024-05-09T20:31:21.258Z,12.92
2024-05-09T20:36:23.558Z,12.82
2024-05-09T20:41:25.705Z,12.72
2024-05-09T20:46:28.312Z,12.68
2024-05-09T20:51:30.640Z,12.61
2024-05-09T20:56:32.778Z,12.51
2024-05-09T21:01:35.028Z,12.43
2024-05-09T21:06:37.327Z,12.38
2024-05-09T21:11:39.612Z,12.34
2024-05-09T21:16:41.945Z,12.27
2024-05-09T21:21:44.240Z,12.17
2024-05-09T21:26:46.454Z,12.10
2024-05-09T21:31:48.631Z,12.03
2024-05-09T21:36:50.854Z,11.94
2024-05-09T21:41:53.651Z,11.88
2024-05-09T21:46:56.237Z,11.83
2024-05-09T21:51:58.459Z,11.78
2024-05-09T21:57:00.686Z,11.74
2024-05-09T22:02:03.340Z,11.68
2024-05-09T22:07:06.574Z,11.65
2024-05-09T22:12:08.786Z,11.64
2024-05-09T22:17:11.114Z,11.54
2024-05-09T22:22:13.408Z,11.54
2024-05-09T22:27:15.686Z,11.47
2024-05-09T22:32:18.140Z,11.41
2024-05-09T22:37:20.461Z,11.37
2024-05-09T22:42:22.627Z,11.37
2024-05-09T22:47:24.974Z,11.35
2024-05-09T22:52:27.194Z,11.30
2024-05-09T22:57:29.534Z,11.26
2024-05-09T23:02:31.806Z,11.22
2024-05-09T23:07:33.988Z,11.12
2024-05-09T23:12:36.190Z,11.12
2024-05-09T23:17:38.478Z,11.07
2024-05-09T23:22:40.714Z,11.00
2024-05-09T23:27:42.946Z,10.95
2024-05-09T23:32:45.309Z,10.89
2024-05-09T23:37:47.556Z,10.86
2024-05-09T23:42:49.797Z,10.85
2024-05-09T23:47:52.230Z,10.83
2024-05-09T23:52:54.508Z,10.81
2024-05-09T23:57:57.102Z,10.75
